createdAt,value
2018-12-15T00:01:57.157Z,23.62
2018-12-15T00:04:25.977Z,23.53
2018-12-15T00:06:55.432Z,23.47
2018-12-15T00:09:24.636Z,23.34
2018-12-15T00:11:53.511Z,23.62
2018-12-15T00:14:22.497Z,24.15
2018-12-15T00:16:51.652Z,24.40
2018-12-15T00:19:20.787Z,24.11
2018-12-15T00:21:49.588Z,23.91
2018-12-15T00:24:18.499Z,23.63
2018-12-15T00:26:47.241Z,23.53
2018-12-15T00:29:16.215Z,23.43
2018-12-15T00:31:44.997Z,23.38
2018-12-15T00:34:13.788Z,23.28
2018-12-15T00:36:42.632Z,23.64
2018-12-15T00:39:11.585Z,24.23
2018-12-15T00:41:40.405Z,24.37
2018-12-15T00:44:09.302Z,24.26
2018-12-15T00:46:38.069Z,23.99
2018-12-15T00:49:07.293Z,23.78
2018-12-15T00:51:36.239Z,23.69
2018-12-15T00:54:05.077Z,23.63
2018-12-15T00:56:33.865Z,23.74
2018-12-15T00:59:02.723Z,23.51
2018-12-15T01:01:31.511Z,23.47
2018-12-15T01:04:00.305Z,23.87
2018-12-15T01:06:29.171Z,24.34
2018-12-15T01:08:58.089Z,24.35
2018-12-15T01:11:27.151Z,24.27
2018-12-15T01:13:56.297Z,23.87
2018-12-15T01:16:25.189Z,23.68
2018-12-15T01:18:54.204Z,23.48
2018-12-15T01:21:23.129Z,23.40
2018-12-15T01:23:52.074Z,23.33
2018-12-15T01:26:21.212Z,23.66
2018-12-15T01:28:50.471Z,24.05
2018-12-15T01:31:19.590Z,24.22
2018-12-15T01:33:48.421Z,24.26
2018-12-15T01:36:17.252Z,24.18
2018-12-15T01:38:46.685Z,23.92
2018-12-15T01:41:15.492Z,23.76
2018-12-15T01:43:44.509Z,23.71
2018-12-15T01:46:13.424Z,23.90
2018-12-15T01:48:42.149Z,23.85
2018-12-15T01:51:10.965Z,23.78
2018-12-15T01:53:40.011Z,23.82
2018-12-15T01:56:08.752Z,24.33
2018-12-15T01:58:37.539Z,24.80
2018-12-15T02:01:06.424Z,24.64
2018-12-15T02:03:35.561Z,24.14
2018-12-15T02:06:04.432Z,23.81
2018-12-15T02:08:33.281Z,23.73
2018-12-15T02:11:02.495Z,23.52
2018-12-15T02:13:31.331Z,23.41
2018-12-15T02:16:00.486Z,23.53
2018-12-15T02:18:29.372Z,23.41
2018-12-15T02:20:58.182Z,23.83
2018-12-15T02:23:27.195Z,24.21
2018-12-15T02:25:56.020Z,24.43
2018-12-15T02:28:24.854Z,24.24
2018-12-15T02:30:53.725Z,24.00
2018-12-15T02:33:22.596Z,24.00
2018-12-15T02:35:51.519Z,23.73
2018-12-15T02:38:20.377Z,23.66
2018-12-15T02:40:49.320Z,23.75
2018-12-15T02:43:18.124Z,23.72
2018-12-15T02:45:46.930Z,23.69
2018-12-15T02:48:15.788Z,24.03
2018-12-15T02:50:44.948Z,24.36
2018-12-15T02:53:14.096Z,24.60
2018-12-15T02:55:42.913Z,24.27
2018-12-15T02:58:11.725Z,24.01
2018-12-15T03:00:40.538Z,23.85
2018-12-15T03:03:09.657Z,23.74
2018-12-15T03:05:38.503Z,23.67
2018-12-15T03:08:07.599Z,23.63
2018-12-15T03:13:18.706Z,23.99
2018-12-15T03:15:47.554Z,24.38
2018-12-15T03:18:16.518Z,24.52
2018-12-15T03:21:07.224Z,24.41
2018-12-15T03:23:36.084Z,24.13
2018-12-15T03:26:05.584Z,23.99
2018-12-15T03:28:34.395Z,23.87
2018-12-15T03:31:03.167Z,23.83
2018-12-15T03:33:31.965Z,23.71
2018-12-15T03:36:01.081Z,23.68
2018-12-15T03:38:29.944Z,23.69
2018-12-15T03:40:58.769Z,24.22
2018-12-15T03:43:27.569Z,24.58
2018-12-15T03:45:56.339Z,24.68
2018-12-15T03:48:25.420Z,24.28
2018-12-15T03:50:54.507Z,24.07
2018-12-15T03:53:23.344Z,23.91
2018-12-15T03:55:52.584Z,23.79
2018-12-15T03:58:21.396Z,23.75
2018-12-15T04:00:50.571Z,23.76
2018-12-15T04:03:19.577Z,23.73
2018-12-15T04:05:48.403Z,23.97
2018-12-15T04:08:17.619Z,24.48
2018-12-15T04:10:46.460Z,24.60
2018-12-15T04:13:15.285Z,24.53
2018-12-15T04:15:44.292Z,24.26
2018-12-15T04:18:13.236Z,24.07
2018-12-15T04:20:42.060Z,23.95
2018-12-15T04:23:10.898Z,23.85
2018-12-15T04:25:39.959Z,23.74
2018-12-15T04:28:09.082Z,23.68
2018-12-15T04:30:37.986Z,23.54
2018-12-15T04:33:06.951Z,23.88
2018-12-15T04:35:35.826Z,24.55
2018-12-15T04:38:04.707Z,24.57
2018-12-15T04:40:33.792Z,24.43
2018-12-15T04:43:02.657Z,24.10
2018-12-15T04:45:31.495Z,23.91
2018-12-15T04:48:00.259Z,23.76
2018-12-15T04:50:29.501Z,23.74
2018-12-15T04:52:58.527Z,23.68
2018-12-15T04:55:27.334Z,23.68
2018-12-15T04:57:56.214Z,23.80
2018-12-15T05:00:24.976Z,24.21
2018-12-15T05:05:52.560Z,24.46
2018-12-15T05:08:21.629Z,24.18
2018-12-15T05:10:50.500Z,24.04
2018-12-15T05:13:19.605Z,23.91
2018-12-15T05:15:48.425Z,23.81
2018-12-15T05:18:18.336Z,23.75
2018-12-15T05:20:47.612Z,23.70
2018-12-15T05:23:16.377Z,23.41
2018-12-15T05:25:45.344Z,23.74
2018-12-15T05:28:14.338Z,24.32
2018-12-15T05:30:43.163Z,24.61
2018-12-15T05:33:12.257Z,24.46
2018-12-15T05:35:41.009Z,24.16
2018-12-15T05:38:09.801Z,23.98
2018-12-15T05:40:38.668Z,23.88
2018-12-15T05:43:08.119Z,23.85
2018-12-15T05:45:37.033Z,23.87
2018-12-15T05:48:05.924Z,23.83
2018-12-15T05:50:35.120Z,23.84
2018-12-15T05:53:03.922Z,24.21
2018-12-15T05:55:32.755Z,24.51
2018-12-15T05:58:01.623Z,24.59
2018-12-15T06:00:30.541Z,24.46
2018-12-15T06:02:59.336Z,24.28
2018-12-15T06:05:28.502Z,24.13
2018-12-15T06:07:57.884Z,24.31
2018-12-15T06:10:26.923Z,24.14
2018-12-15T06:12:55.731Z,24.21
2018-12-15T06:15:24.630Z,23.87
2018-12-15T06:17:53.531Z,23.89
2018-12-15T06:20:22.338Z,24.28
2018-12-15T06:22:51.133Z,24.69
2018-12-15T06:25:19.942Z,24.83
2018-12-15T06:27:48.806Z,24.55
2018-12-15T06:30:17.609Z,24.47
2018-12-15T06:32:46.385Z,24.47
2018-12-15T06:35:15.180Z,24.49
2018-12-15T06:37:43.979Z,24.52
2018-12-15T06:40:12.794Z,24.48
2018-12-15T06:42:41.803Z,24.44
2018-12-15T06:45:10.873Z,24.49
2018-12-15T06:47:39.772Z,25.08
2018-12-15T06:50:08.560Z,25.03
2018-12-15T06:52:37.461Z,25.23
2018-12-15T06:55:06.236Z,24.75
2018-12-15T06:57:35.047Z,24.60
2018-12-15T07:00:04.027Z,24.45
2018-12-15T07:02:32.833Z,24.33
2018-12-15T07:05:01.708Z,24.24
2018-12-15T07:07:30.523Z,24.05
2018-12-15T07:09:59.338Z,24.09
2018-12-15T07:12:28.897Z,24.01
2018-12-15T07:14:58.198Z,24.23
2018-12-15T07:17:27.010Z,24.23
2018-12-15T07:19:56.171Z,24.14
2018-12-15T07:22:25.064Z,23.78
2018-12-15T07:24:53.902Z,23.48
2018-12-15T07:27:22.740Z,23.40
2018-12-15T07:29:51.561Z,23.52
2018-12-15T07:32:20.715Z,23.37
2018-12-15T07:34:49.557Z,23.73
2018-12-15T07:37:18.426Z,24.12
2018-12-15T07:39:47.438Z,24.43
2018-12-15T07:42:16.415Z,24.82
2018-12-15T07:44:45.404Z,25.01
2018-12-15T07:47:14.231Z,25.11
2018-12-15T07:49:43.048Z,24.71
2018-12-15T07:52:12.128Z,24.54
2018-12-15T07:54:40.964Z,24.51
2018-12-15T07:57:09.853Z,24.33
2018-12-15T07:59:38.698Z,24.11
2018-12-15T08:02:07.488Z,24.02
2018-12-15T08:04:36.441Z,23.97
2018-12-15T08:07:05.249Z,24.16
2018-12-15T08:09:35.685Z,24.66
2018-12-15T08:12:09.869Z,25.01
2018-12-15T08:14:38.960Z,25.00
2018-12-15T08:17:08.433Z,24.78
2018-12-15T08:19:37.563Z,23.39
2018-12-15T08:22:06.501Z,21.83
2018-12-15T08:24:35.571Z,21.35
2018-12-15T08:27:05.209Z,22.03
2018-12-15T08:29:34.037Z,23.43
2018-12-15T08:32:02.867Z,24.04
2018-12-15T08:34:31.828Z,24.45
2018-12-15T08:37:00.669Z,25.24
2018-12-15T08:39:29.493Z,25.65
2018-12-15T08:41:58.650Z,25.69
2018-12-15T08:44:27.497Z,25.26
2018-12-15T08:46:56.335Z,25.08
2018-12-15T08:49:25.297Z,24.66
2018-12-15T08:51:54.097Z,24.62
2018-12-15T08:54:23.068Z,24.34
2018-12-15T08:56:52.059Z,24.17
2018-12-15T08:59:20.993Z,24.40
2018-12-15T09:01:49.760Z,24.31
2018-12-15T09:04:18.836Z,25.15
2018-12-15T09:06:47.694Z,25.37
2018-12-15T09:09:16.568Z,25.12
2018-12-15T09:11:45.569Z,24.50
2018-12-15T09:14:14.547Z,24.04
2018-12-15T09:16:43.348Z,24.63
2018-12-15T09:19:12.218Z,24.73
2018-12-15T09:21:41.083Z,24.75
2018-12-15T09:24:09.945Z,24.75
2018-12-15T09:26:38.677Z,24.68
2018-12-15T09:29:07.713Z,24.68
2018-12-15T09:31:36.635Z,25.04
2018-12-15T09:34:05.494Z,25.47
2018-12-15T09:36:34.476Z,25.65
2018-12-15T09:39:03.501Z,25.42
2018-12-15T09:41:32.357Z,25.21
2018-12-15T09:44:01.341Z,25.08
2018-12-15T09:46:30.231Z,25.01
2018-12-15T09:48:59.080Z,24.95
2018-12-15T09:51:27.905Z,24.85
2018-12-15T09:53:56.686Z,24.84
2018-12-15T09:56:25.484Z,24.92
2018-12-15T09:58:54.273Z,25.09
2018-12-15T10:01:23.170Z,25.52
2018-12-15T10:03:52.010Z,25.85
2018-12-15T10:06:21.021Z,25.80
2018-12-15T10:08:49.922Z,25.58
2018-12-15T10:11:18.763Z,25.24
2018-12-15T10:13:47.942Z,25.31
2018-12-15T10:16:16.812Z,25.07
2018-12-15T10:18:45.652Z,25.11
2018-12-15T10:21:14.539Z,25.02
2018-12-15T10:23:43.348Z,25.03
2018-12-15T10:26:12.485Z,25.00
2018-12-15T10:28:41.313Z,25.23
2018-12-15T10:31:15.366Z,25.81
2018-12-15T10:33:44.225Z,25.99
2018-12-15T10:36:13.059Z,25.80
2018-12-15T10:38:41.967Z,25.68
2018-12-15T10:41:10.790Z,25.48
2018-12-15T10:43:39.601Z,25.36
2018-12-15T10:46:08.640Z,25.28
2018-12-15T10:48:37.444Z,25.22
2018-12-15T10:51:06.266Z,25.04
2018-12-15T10:53:35.086Z,24.98
2018-12-15T10:56:03.939Z,25.08
2018-12-15T10:58:32.733Z,25.52
2018-12-15T11:01:06.741Z,25.85
2018-12-15T11:03:35.617Z,25.91
2018-12-15T11:06:04.536Z,25.52
2018-12-15T11:08:33.273Z,25.37
2018-12-15T11:11:02.095Z,25.30
2018-12-15T11:13:31.217Z,24.50
2018-12-15T11:16:00.029Z,22.63
2018-12-15T11:18:28.820Z,23.87
2018-12-15T11:20:57.577Z,24.46
2018-12-15T11:23:26.441Z,24.73
2018-12-15T11:25:55.446Z,25.38
2018-12-15T11:28:24.275Z,25.63
2018-12-15T11:30:53.103Z,25.48
2018-12-15T11:33:21.983Z,25.08
2018-12-15T11:35:50.784Z,25.09
2018-12-15T11:38:19.766Z,24.99
2018-12-15T11:40:48.585Z,24.90
2018-12-15T11:43:17.495Z,24.86
2018-12-15T11:45:46.367Z,24.85
2018-12-15T11:48:15.208Z,24.75
2018-12-15T11:50:44.431Z,24.77
2018-12-15T11:53:13.289Z,25.14
2018-12-15T11:55:42.089Z,25.38
2018-12-15T11:58:10.990Z,25.67
2018-12-15T12:00:39.837Z,25.42
2018-12-15T12:03:08.727Z,25.21
2018-12-15T12:05:37.634Z,25.12
2018-12-15T12:08:06.459Z,25.03
2018-12-15T12:10:35.504Z,24.84
2018-12-15T12:13:04.504Z,24.84
2018-12-15T12:15:33.392Z,24.76
2018-12-15T12:18:02.485Z,24.72
2018-12-15T12:20:31.267Z,24.77
2018-12-15T12:23:00.073Z,25.19
2018-12-15T12:25:28.911Z,25.37
2018-12-15T12:27:57.735Z,25.47
2018-12-15T12:30:26.503Z,25.20
2018-12-15T12:32:55.291Z,24.87
2018-12-15T12:35:24.416Z,24.93
2018-12-15T12:37:53.402Z,24.89
2018-12-15T12:40:22.279Z,24.76
2018-12-15T12:42:51.405Z,24.67
2018-12-15T12:45:20.277Z,24.61
2018-12-15T12:47:49.241Z,24.56
2018-12-15T12:50:18.075Z,24.24
2018-12-15T12:52:46.889Z,24.82
2018-12-15T12:55:15.733Z,25.41
2018-12-15T12:57:44.567Z,25.41
2018-12-15T13:00:13.483Z,24.87
2018-12-15T13:02:42.428Z,24.71
2018-12-15T13:05:11.325Z,24.45
2018-12-15T13:07:40.221Z,24.44
2018-12-15T13:10:09.139Z,24.39
2018-12-15T13:12:38.019Z,24.37
2018-12-15T13:15:07.157Z,24.38
2018-12-15T13:17:35.934Z,24.35
2018-12-15T13:20:04.993Z,24.97
2018-12-15T13:22:33.865Z,25.45
2018-12-15T13:25:02.714Z,25.49
2018-12-15T13:27:31.647Z,25.04
2018-12-15T13:30:00.495Z,24.82
2018-12-15T13:32:29.451Z,24.79
2018-12-15T13:34:58.348Z,24.77
2018-12-15T13:37:27.237Z,24.45
2018-12-15T13:39:56.172Z,24.48
2018-12-15T13:42:25.018Z,24.43
2018-12-15T13:44:53.861Z,24.41
2018-12-15T13:47:22.675Z,24.39
2018-12-15T13:49:52.172Z,24.41
2018-12-15T13:52:20.977Z,24.76
2018-12-15T13:54:50.079Z,25.10
2018-12-15T13:57:19.212Z,25.18
2018-12-15T13:59:48.075Z,25.10
2018-12-15T14:02:16.935Z,24.93
2018-12-15T14:04:45.681Z,24.87
2018-12-15T14:07:14.521Z,24.82
2018-12-15T14:09:43.596Z,24.72
2018-12-15T14:12:12.461Z,24.66
2018-12-15T14:14:41.912Z,24.66
2018-12-15T14:17:10.920Z,24.63
2018-12-15T14:19:39.964Z,24.56
2018-12-15T14:22:08.955Z,24.54
2018-12-15T14:24:37.749Z,24.34
2018-12-15T14:27:06.600Z,24.94
2018-12-15T14:29:35.362Z,24.99
2018-12-15T14:32:04.073Z,24.78
2018-12-15T14:34:33.029Z,24.78
2018-12-15T14:37:01.858Z,24.65
2018-12-15T14:39:30.665Z,24.63
2018-12-15T14:41:59.448Z,24.47
2018-12-15T14:44:28.861Z,24.59
2018-12-15T14:46:57.595Z,24.57
2018-12-15T14:49:26.415Z,24.46
2018-12-15T14:51:55.168Z,24.45
2018-12-15T14:54:24.331Z,24.44
2018-12-15T14:56:53.281Z,24.56
2018-12-15T14:59:22.159Z,24.93
2018-12-15T15:01:50.926Z,25.09
2018-12-15T15:04:19.736Z,25.02
2018-12-15T15:06:48.598Z,24.86
2018-12-15T15:09:17.684Z,24.76
2018-12-15T15:11:46.605Z,24.59
2018-12-15T15:14:15.429Z,24.59
2018-12-15T15:16:44.292Z,24.50
2018-12-15T15:19:13.095Z,24.47
2018-12-15T15:21:41.827Z,24.65
2018-12-15T15:24:10.636Z,24.49
2018-12-15T15:26:39.458Z,24.41
2018-12-15T15:29:08.357Z,24.56
2018-12-15T15:31:37.182Z,25.10
2018-12-15T15:34:05.990Z,25.07
2018-12-15T15:36:34.772Z,24.96
2018-12-15T15:39:04.133Z,24.83
2018-12-15T15:41:32.958Z,24.71
2018-12-15T15:44:01.815Z,24.67
2018-12-15T15:46:30.659Z,24.47
2018-12-15T15:48:59.846Z,24.32
2018-12-15T15:51:28.676Z,24.31
2018-12-15T15:53:57.787Z,24.43
2018-12-15T15:56:26.701Z,24.40
2018-12-15T15:58:55.650Z,24.39
2018-12-15T16:01:24.499Z,24.71
2018-12-15T16:03:53.360Z,25.03
2018-12-15T16:06:22.079Z,25.02
2018-12-15T16:08:50.903Z,25.00
2018-12-15T16:11:19.668Z,24.64
2018-12-15T16:13:48.845Z,24.41
2018-12-15T16:16:28.785Z,24.16
2018-12-15T16:18:57.857Z,24.18
2018-12-15T16:21:26.720Z,24.49
2018-12-15T16:23:55.621Z,24.48
2018-12-15T16:26:24.468Z,24.53
2018-12-15T16:28:53.312Z,24.29
2018-12-15T16:31:22.163Z,24.39
2018-12-15T16:33:50.976Z,24.11
2018-12-15T16:36:19.822Z,24.42
2018-12-15T16:38:48.691Z,24.80
2018-12-15T16:41:17.426Z,24.92
2018-12-15T16:43:46.325Z,24.59
2018-12-15T16:46:15.297Z,24.40
2018-12-15T16:48:44.099Z,24.68
2018-12-15T16:51:12.893Z,24.75
2018-12-15T16:53:41.724Z,24.81
2018-12-15T16:56:10.697Z,24.81
2018-12-15T16:58:39.517Z,24.81
2018-12-15T17:01:08.251Z,24.83
2018-12-15T17:03:37.326Z,24.85
2018-12-15T17:06:06.155Z,24.88
2018-12-15T17:08:34.983Z,23.46
2018-12-15T17:11:03.821Z,21.75
2018-12-15T17:13:32.637Z,21.71
2018-12-15T17:16:01.814Z,21.95
2018-12-15T17:18:30.589Z,23.45
2018-12-15T17:20:59.690Z,23.81
2018-12-15T17:23:28.501Z,24.19
2018-12-15T17:25:57.671Z,24.36
2018-12-15T17:28:26.999Z,24.45
2018-12-15T17:30:55.804Z,24.18
2018-12-15T17:33:24.640Z,24.26
2018-12-15T17:35:53.512Z,24.48
2018-12-15T17:38:22.381Z,24.56
2018-12-15T17:40:51.464Z,24.47
2018-12-15T17:43:20.341Z,24.47
2018-12-15T17:45:49.113Z,24.47
2018-12-15T17:48:18.259Z,24.75
2018-12-15T17:50:47.071Z,24.91
2018-12-15T17:53:15.855Z,24.94
2018-12-15T17:55:44.758Z,24.71
2018-12-15T17:58:14.835Z,24.78
2018-12-15T18:00:44.045Z,24.69
2018-12-15T18:03:12.862Z,24.66
2018-12-15T18:05:42.003Z,24.56
2018-12-15T18:08:10.854Z,24.56
2018-12-15T18:10:39.785Z,24.57
2018-12-15T18:13:08.646Z,24.57
2018-12-15T18:15:37.495Z,24.56
2018-12-15T18:18:06.540Z,24.33
2018-12-15T18:20:35.893Z,24.52
2018-12-15T18:23:04.705Z,24.90
2018-12-15T18:25:33.519Z,24.85
2018-12-15T18:28:02.308Z,24.81
2018-12-15T18:30:31.278Z,24.63
2018-12-15T18:33:00.243Z,24.68
2018-12-15T18:35:29.333Z,24.54
2018-12-15T18:37:58.126Z,24.51
2018-12-15T18:40:26.971Z,24.20
2018-12-15T18:42:55.825Z,24.39
2018-12-15T18:45:24.640Z,24.40
2018-12-15T18:47:53.445Z,24.15
2018-12-15T18:50:22.601Z,24.41
2018-12-15T18:52:51.352Z,24.81
2018-12-15T18:55:20.565Z,24.90
2018-12-15T18:57:49.497Z,24.72
2018-12-15T19:00:18.334Z,24.44
2018-12-15T19:02:47.124Z,24.68
2018-12-15T19:05:15.926Z,24.41
2018-12-15T19:07:44.725Z,24.53
2018-12-15T19:10:13.629Z,24.42
2018-12-15T19:12:42.484Z,24.25
2018-12-15T19:15:11.581Z,24.27
2018-12-15T19:17:40.666Z,24.23
2018-12-15T19:20:09.458Z,24.23
2018-12-15T19:22:38.254Z,24.21
2018-12-15T19:25:07.314Z,24.64
2018-12-15T19:27:36.130Z,24.72
2018-12-15T19:30:05.431Z,24.75
2018-12-15T19:32:34.240Z,24.57
2018-12-15T19:35:03.286Z,24.44
2018-12-15T19:37:32.089Z,23.97
2018-12-15T19:40:01.332Z,24.17
2018-12-15T19:42:30.643Z,24.24
2018-12-15T19:44:59.541Z,24.29
2018-12-15T19:47:28.427Z,24.18
2018-12-15T19:49:57.284Z,24.17
2018-12-15T19:52:26.199Z,24.13
2018-12-15T19:54:54.995Z,24.47
2018-12-15T19:57:23.818Z,24.88
2018-12-15T19:59:52.680Z,24.83
2018-12-15T20:02:21.707Z,24.74
2018-12-15T20:04:50.517Z,24.56
2018-12-15T20:07:19.572Z,24.53
2018-12-15T20:09:48.462Z,24.50
2018-12-15T20:12:17.318Z,24.47
2018-12-15T20:14:46.299Z,24.44
2018-12-15T20:17:15.116Z,24.41
2018-12-15T20:19:43.926Z,24.36
2018-12-15T20:22:12.913Z,24.41
2018-12-15T20:24:42.002Z,24.39
2018-12-15T20:27:10.867Z,24.42
2018-12-15T20:29:39.997Z,24.99
2018-12-15T20:32:08.808Z,25.04
2018-12-15T20:34:37.626Z,24.95
2018-12-15T20:37:06.766Z,24.72
2018-12-15T20:39:35.548Z,24.64
2018-12-15T20:42:04.435Z,24.56
2018-12-15T20:44:33.337Z,24.48
2018-12-15T20:47:02.303Z,24.60
2018-12-15T20:49:31.345Z,24.57
2018-12-15T20:52:00.531Z,24.42
2018-12-15T20:54:30.070Z,24.51
2018-12-15T20:56:58.938Z,24.51
2018-12-15T20:59:27.718Z,24.47
2018-12-15T21:01:56.474Z,24.51
2018-12-15T21:04:25.305Z,25.03
2018-12-15T21:06:54.123Z,25.04
2018-12-15T21:09:23.162Z,25.22
2018-12-15T21:11:52.118Z,24.85
2018-12-15T21:14:21.202Z,24.68
2018-12-15T21:16:50.483Z,24.57
2018-12-15T21:19:19.518Z,24.49
2018-12-15T21:21:49.710Z,24.45
2018-12-15T21:24:19.056Z,24.40
2018-12-15T21:26:47.959Z,24.43
2018-12-15T21:29:16.755Z,24.46
2018-12-15T21:31:46.832Z,24.82
2018-12-15T21:34:15.794Z,25.12
2018-12-15T21:36:44.664Z,25.04
2018-12-15T21:39:13.574Z,25.03
2018-12-15T21:41:42.381Z,25.11
2018-12-15T21:44:11.544Z,24.82
2018-12-15T21:46:40.672Z,24.64
2018-12-15T21:49:10.059Z,24.59
2018-12-15T21:51:39.325Z,24.93
2018-12-15T21:54:08.494Z,24.54
2018-12-15T21:56:37.245Z,24.48
2018-12-15T21:59:06.077Z,24.79
2018-12-15T22:01:34.877Z,24.89
2018-12-15T22:04:03.777Z,24.83
2018-12-15T22:06:32.769Z,25.18
2018-12-15T22:09:01.877Z,24.93
2018-12-15T22:11:30.857Z,24.88
2018-12-15T22:13:59.945Z,24.87
2018-12-15T22:16:28.940Z,24.87
2018-12-15T22:18:57.762Z,24.97
2018-12-15T22:21:26.811Z,24.92
2018-12-15T22:23:55.674Z,24.92
2018-12-15T22:26:24.511Z,24.55
2018-12-15T22:28:53.398Z,24.79
2018-12-15T22:31:22.220Z,24.89
2018-12-15T22:33:51.381Z,24.82
2018-12-15T22:36:20.577Z,24.84
2018-12-15T22:38:49.390Z,24.91
2018-12-15T22:41:18.243Z,25.20
2018-12-15T22:43:47.286Z,25.16
2018-12-15T22:46:16.142Z,25.08
2018-12-15T22:48:45.021Z,24.99
2018-12-15T22:51:13.939Z,24.90
2018-12-15T22:53:42.933Z,24.85
2018-12-15T22:56:12.073Z,24.84
2018-12-15T22:58:40.874Z,24.70
2018-12-15T23:01:12.961Z,24.68
2018-12-15T23:03:42.073Z,24.77
2018-12-15T23:06:11.084Z,24.55
2018-12-15T23:08:41.670Z,25.05
2018-12-15T23:11:10.575Z,25.21
2018-12-15T23:13:39.521Z,24.78
2018-12-15T23:16:08.431Z,24.66
2018-12-15T23:18:37.306Z,24.56
2018-12-15T23:21:06.068Z,24.71
2018-12-15T23:23:34.945Z,24.91
2018-12-15T23:26:03.803Z,24.89
2018-12-15T23:28:32.551Z,24.84
2018-12-15T23:31:01.814Z,24.79
2018-12-15T23:33:30.903Z,24.38
2018-12-15T23:35:59.729Z,24.78
2018-12-15T23:38:28.582Z,25.19
2018-12-15T23:40:57.572Z,25.12
2018-12-15T23:43:26.386Z,24.94
2018-12-15T23:45:55.168Z,24.82
2018-12-15T23:48:24.218Z,24.71
2018-12-15T23:50:53.042Z,24.63
2018-12-15T23:53:22.321Z,24.59
2018-12-15T23:55:51.380Z,24.59
2018-12-15T23:58:20.489Z,24.58
